Time;durP1;ratioP1;P1;durP2;ratioP2;P2;SDS_P1;SDS_P2;PMS_P1;PMS_P2;Temp;Humidity;BMP_temperature;BMP_pressure;BME280_temperature;BME280_humidity;BME280_pressure;Samples;Min_cycle;Max_cycle;Signal;HPM_P1;HPM_P2
2020/12/22 00:02:02;;;;;;;16.10;8.67;;;3.60;96.30;;;;;;4976317;28;20189;-79
2020/12/22 00:04:28;;;;;;;12.70;9.00;;;3.60;96.30;;;;;;4977356;28;20645;-79
2020/12/22 00:06:57;;;;;;;14.60;8.70;;;3.50;96.30;;;;;;4976831;28;20175;-79
2020/12/22 00:09:23;;;;;;;13.77;8.93;;;3.50;96.30;;;;;;4976775;28;20213;-79
2020/12/22 00:11:48;;;;;;;14.17;8.97;;;3.40;96.30;;;;;;4975181;28;20453;-79
2020/12/22 00:14:14;;;;;;;10.90;8.30;;;3.30;96.30;;;;;;4976603;28;20432;-79
2020/12/22 00:16:39;;;;;;;11.27;7.63;;;3.40;96.30;;;;;;4974251;28;20198;-79
2020/12/22 00:19:05;;;;;;;12.53;8.97;;;3.30;96.30;;;;;;4975887;28;20229;-79
2020/12/22 00:21:32;;;;;;;11.83;9.40;;;3.30;96.30;;;;;;4976018;28;20182;-79
2020/12/22 00:23:58;;;;;;;10.27;7.10;;;3.20;96.30;;;;;;4976645;28;20261;-78
2020/12/22 00:26:24;;;;;;;13.70;7.47;;;3.20;96.30;;;;;;4975438;28;20987;-78
2020/12/22 00:28:49;;;;;;;13.43;9.20;;;3.20;96.30;;;;;;4975180;28;20257;-78
2020/12/22 00:31:15;;;;;;;11.37;7.53;;;3.10;96.30;;;;;;4975125;28;20186;-78
2020/12/22 00:33:40;;;;;;;9.40;6.80;;;3.10;96.30;;;;;;4974227;28;20178;-78
2020/12/22 00:36:07;;;;;;;10.87;7.40;;;3.10;96.30;;;;;;4974850;28;20201;-78
2020/12/22 00:38:33;;;;;;;12.67;8.60;;;3.10;96.30;;;;;;4973715;28;20186;-78
2020/12/22 00:40:58;;;;;;;15.10;8.03;;;3.00;96.30;;;;;;4975195;28;20413;-78
2020/12/22 00:43:23;;;;;;;12.70;7.00;;;3.00;96.30;;;;;;4974661;28;20669;-78
2020/12/22 00:45:49;;;;;;;8.50;6.90;;;3.00;96.30;;;;;;4975974;28;20198;-79
2020/12/22 00:48:14;;;;;;;10.10;5.77;;;2.90;96.30;;;;;;4978793;28;20459;-79
2020/12/22 00:50:40;;;;;;;9.10;6.50;;;3.00;96.30;;;;;;4987704;28;20233;-79
2020/12/22 00:53:05;;;;;;;10.83;7.13;;;3.00;96.30;;;;;;4986164;28;20226;-79
2020/12/22 00:55:31;;;;;;;14.37;8.23;;;2.90;96.30;;;;;;4976185;28;20209;-79
2020/12/22 00:57:56;;;;;;;13.67;7.50;;;2.90;96.30;;;;;;4976886;28;20261;-79
2020/12/22 05:01:10;;;;;;;1.10;0.90;;;6.90;96.30;;;;;;5652916;23;20489;-77
2020/12/22 05:03:35;;;;;;;3.20;2.50;;;7.10;96.30;;;;;;4974121;28;20410;-77
2020/12/22 05:06:02;;;;;;;6.90;5.20;;;7.10;96.30;;;;;;4974725;28;20187;-77
2020/12/22 05:08:27;;;;;;;1.30;1.13;;;7.30;96.30;;;;;;4973551;28;20240;-77
2020/12/22 05:10:53;;;;;;;1.13;0.97;;;7.40;96.30;;;;;;4973940;28;20513;-78
2020/12/22 05:13:21;;;;;;;1.00;0.87;;;7.30;96.30;;;;;;4972848;28;20559;-77
2020/12/22 05:15:51;;;;;;;2.70;2.37;;;7.40;96.30;;;;;;4973641;28;20213;-76
2020/12/22 05:18:23;;;;;;;1.30;1.13;;;7.50;96.30;;;;;;4974511;28;20404;-75
2020/12/22 05:20:49;;;;;;;7.33;5.73;;;7.40;96.30;;;;;;4974100;28;20440;-76
2020/12/22 05:23:20;;;;;;;1.30;1.20;;;7.50;96.30;;;;;;4973476;28;20418;-77
2020/12/22 05:25:47;;;;;;;2.63;2.43;;;7.50;96.30;;;;;;4972868;28;20422;-76
2020/12/22 05:28:18;;;;;;;7.23;5.83;;;7.50;96.30;;;;;;4972887;28;20995;-77
2020/12/22 05:30:45;;;;;;;4.97;3.00;;;7.50;96.30;;;;;;4974057;28;20448;-75
2020/12/22 05:33:11;;;;;;;2.97;1.53;;;7.60;96.30;;;;;;4972084;28;20456;-76
2020/12/22 05:35:47;;;;;;;1.93;0.53;;;7.60;96.30;;;;;;4971936;28;20497;-76
2020/12/22 05:38:17;;;;;;;3.63;2.07;;;7.60;96.30;;;;;;4973927;28;20456;-76
2020/12/22 05:40:44;;;;;;;0.90;0.60;;;7.60;96.30;;;;;;4978916;28;20527;-76
2020/12/22 05:43:10;;;;;;;16.77;8.97;;;7.60;96.30;;;;;;4991461;28;20423;-76
2020/12/22 05:45:38;;;;;;;0.90;0.70;;;7.70;96.30;;;;;;4993365;28;20401;-76
2020/12/22 05:48:05;;;;;;;5.87;3.77;;;7.60;96.30;;;;;;4992185;28;20413;-77
2020/12/22 05:50:32;;;;;;;4.70;2.83;;;7.70;96.30;;;;;;4993081;28;20433;-76
2020/12/22 05:52:59;;;;;;;1.50;0.97;;;7.80;96.30;;;;;;4991337;28;20548;-77
2020/12/22 05:55:32;;;;;;;3.40;2.00;;;7.80;96.30;;;;;;4993244;28;20416;-76
2020/12/22 05:58:13;;;;;;;0.90;0.70;;;7.90;96.30;;;;;;4993184;28;20397;-76
2020/12/22 06:00:41;;;;;;;22.07;9.50;;;8.00;96.30;;;;;;4992982;28;20444;-76
2020/12/22 06:03:14;;;;;;;11.73;6.20;;;8.00;96.30;;;;;;4992419;28;20432;-76
2020/12/22 06:05:43;;;;;;;10.13;5.50;;;8.00;96.30;;;;;;4987332;28;20962;-75
2020/12/22 06:08:13;;;;;;;0.80;0.50;;;8.00;96.30;;;;;;4961814;28;21294;-77
2020/12/22 06:10:40;;;;;;;18.50;11.90;;;8.00;96.30;;;;;;4964083;28;20438;-75
2020/12/22 06:13:07;;;;;;;0.80;0.60;;;8.10;96.30;;;;;;4956704;28;20457;-76
2020/12/22 06:15:34;;;;;;;1.10;0.70;;;8.10;96.30;;;;;;4969373;28;20437;-75
2020/12/22 06:18:01;;;;;;;9.10;4.83;;;8.10;96.30;;;;;;4961942;28;20425;-75
2020/12/22 06:20:28;;;;;;;1.10;0.70;;;8.20;96.30;;;;;;4957242;28;20422;-77
2020/12/22 06:23:01;;;;;;;7.33;6.00;;;8.20;96.30;;;;;;4961817;28;20421;-77
2020/12/22 06:25:27;;;;;;;2.00;1.43;;;8.20;96.30;;;;;;4965438;28;20444;-76
2020/12/22 06:27:53;;;;;;;1.40;0.90;;;8.10;96.30;;;;;;4961875;28;21483;-76
2020/12/22 06:30:29;;;;;;;3.43;2.50;;;8.10;96.30;;;;;;4962583;28;20438;-75
2020/12/22 06:32:54;;;;;;;3.47;2.60;;;8.00;96.30;;;;;;4963305;28;20210;-76
2020/12/22 06:35:28;;;;;;;12.40;7.10;;;8.10;96.30;;;;;;4965126;28;20468;-76
2020/12/22 06:37:54;;;;;;;10.60;7.27;;;8.00;96.30;;;;;;4973071;28;20182;-77
2020/12/22 06:40:53;;;;;;;32.93;19.90;;;7.90;96.30;;;;;;4973109;28;20444;-77
2020/12/22 06:43:46;;;;;;;5.47;3.70;;;7.90;96.30;;;;;;4960556;28;20505;-77
2020/12/22 06:46:34;;;;;;;3.33;2.37;;;7.90;96.30;;;;;;4968044;28;20430;-77
2020/12/22 06:49:00;;;;;;;1.70;1.60;;;8.00;96.30;;;;;;4966612;28;21298;-79
2020/12/22 06:51:31;;;;;;;3.67;2.77;;;8.00;96.30;;;;;;4967083;28;20441;-77
2020/12/22 06:54:01;;;;;;;1.10;0.70;;;8.00;96.30;;;;;;4964954;28;20411;-77
2020/12/22 06:56:43;;;;;;;2.27;0.90;;;8.10;96.30;;;;;;4964987;28;20512;-78
2020/12/22 06:59:10;;;;;;;0.90;0.50;;;8.20;96.30;;;;;;4967599;28;20406;-79
2020/12/22 07:01:46;;;;;;;0.90;0.50;;;8.20;96.30;;;;;;4967947;28;20460;-78
2020/12/22 07:04:21;;;;;;;3.80;1.17;;;8.40;96.30;;;;;;4971973;28;20473;-78
2020/12/22 07:06:47;;;;;;;3.10;2.60;;;8.50;96.30;;;;;;4969469;28;20417;-76
2020/12/22 07:09:20;;;;;;;0.83;0.50;;;8.60;96.30;;;;;;4968835;28;20513;-79
2020/12/22 07:11:48;;;;;;;3.97;2.57;;;8.50;96.30;;;;;;4965698;28;20211;-79
2020/12/22 07:14:17;;;;;;;2.30;0.90;;;8.50;96.30;;;;;;4956650;28;20418;-78
2020/12/22 07:16:47;;;;;;;3.53;0.80;;;8.50;96.30;;;;;;4964191;28;20930;-79
2020/12/22 07:19:20;;;;;;;1.87;1.50;;;8.60;96.30;;;;;;4968261;28;20496;-78
2020/12/22 07:21:46;;;;;;;0.80;0.50;;;8.60;96.30;;;;;;4963936;28;20504;-78
2020/12/22 07:24:12;;;;;;;1.87;0.70;;;8.60;96.30;;;;;;4968212;28;20429;-78
2020/12/22 07:26:38;;;;;;;1.40;0.70;;;8.70;96.30;;;;;;4965322;28;20270;-78
2020/12/22 07:29:06;;;;;;;3.13;0.63;;;8.70;96.30;;;;;;4966262;28;20424;-77
2020/12/22 07:31:34;;;;;;;0.80;0.50;;;8.80;96.30;;;;;;4962478;28;20446;-78
2020/12/22 07:34:04;;;;;;;0.87;0.60;;;8.90;96.30;;;;;;4983321;28;20501;-76
2020/12/22 07:36:30;;;;;;;0.90;0.73;;;9.00;96.30;;;;;;4967106;28;20414;-79
2020/12/22 07:39:13;;;;;;;2.13;1.93;;;9.00;96.30;;;;;;4958964;28;20440;-75
2020/12/22 07:41:38;;;;;;;0.90;0.63;;;9.00;96.30;;;;;;4960887;28;20248;-75
2020/12/22 07:44:08;;;;;;;0.93;0.63;;;9.00;96.30;;;;;;4960141;28;20423;-76
2020/12/22 07:46:33;;;;;;;1.47;0.60;;;9.00;96.30;;;;;;4967245;28;20221;-75
2020/12/22 07:49:06;;;;;;;0.90;0.50;;;9.00;96.30;;;;;;4990712;28;20453;-76
2020/12/22 07:51:32;;;;;;;0.80;0.50;;;9.10;96.30;;;;;;4974129;28;20245;-76
2020/12/22 07:54:01;;;;;;;0.80;0.50;;;9.10;96.30;;;;;;4975344;28;20928;-76
2020/12/22 07:56:29;;;;;;;0.80;0.50;;;9.20;96.30;;;;;;4975479;28;20409;-76
2020/12/22 07:58:56;;;;;;;0.80;0.50;;;9.30;96.30;;;;;;4975398;28;20781;-76
2020/12/22 08:01:23;;;;;;;0.80;0.50;;;9.40;96.30;;;;;;4975188;28;20461;-76
2020/12/22 08:03:48;;;;;;;0.87;0.50;;;9.40;96.30;;;;;;4975145;28;20965;-75
2020/12/22 08:06:14;;;;;;;0.80;0.50;;;9.50;96.30;;;;;;4975391;28;20422;-76
2020/12/22 08:08:39;;;;;;;0.80;0.40;;;9.50;96.30;;;;;;4975184;28;20189;-76
2020/12/22 08:11:05;;;;;;;0.80;0.53;;;9.50;96.30;;;;;;4973893;28;20670;-76
2020/12/22 08:13:32;;;;;;;0.80;0.50;;;9.60;96.30;;;;;;4972906;28;20226;-76
2020/12/22 08:15:58;;;;;;;0.80;0.40;;;9.60;96.30;;;;;;4974303;28;20166;-75
2020/12/22 08:18:25;;;;;;;0.80;0.50;;;9.70;96.30;;;;;;4975102;28;20416;-75
2020/12/22 08:20:55;;;;;;;0.80;0.50;;;9.80;96.30;;;;;;4975023;28;20433;-75
2020/12/22 08:23:21;;;;;;;0.90;0.50;;;9.80;96.30;;;;;;4969048;28;20484;-75
2020/12/22 08:25:49;;;;;;;0.90;0.63;;;9.90;96.30;;;;;;4972635;28;20417;-75
2020/12/22 08:28:27;;;;;;;0.90;0.50;;;9.90;96.30;;;;;;4970851;28;20817;-75
2020/12/22 08:30:54;;;;;;;0.90;0.50;;;9.90;96.30;;;;;;4973494;28;20433;-75
2020/12/22 08:33:21;;;;;;;0.80;0.50;;;10.00;96.30;;;;;;4974159;28;20548;-75
2020/12/22 08:35:51;;;;;;;0.80;0.40;;;9.90;96.30;;;;;;4963351;28;20426;-75
2020/12/22 08:38:24;;;;;;;0.80;0.50;;;10.00;96.30;;;;;;4966398;28;20943;-74
2020/12/22 08:40:51;;;;;;;0.80;0.50;;;10.00;96.30;;;;;;4974471;28;20425;-75
2020/12/22 08:43:16;;;;;;;2.93;0.60;;;10.10;96.30;;;;;;4958965;28;20425;-74
2020/12/22 08:45:42;;;;;;;0.80;0.50;;;10.10;96.30;;;;;;4958521;28;20442;-74
2020/12/22 08:48:07;;;;;;;0.80;0.40;;;10.20;96.30;;;;;;4969910;28;20693;-75
2020/12/22 08:50:48;;;;;;;0.83;0.50;;;10.20;96.30;;;;;;4964839;28;20565;-75
2020/12/22 08:53:15;;;;;;;0.80;0.40;;;10.30;96.30;;;;;;4969991;28;20205;-75
2020/12/22 08:55:41;;;;;;;0.80;0.50;;;10.40;96.30;;;;;;4962487;28;20426;-74
2020/12/22 08:58:06;;;;;;;0.97;0.50;;;10.50;96.30;;;;;;4966902;28;20428;-73
2020/12/22 09:00:32;;;;;;;0.80;0.50;;;10.50;96.30;;;;;;4972872;28;20212;-74
2020/12/22 09:03:01;;;;;;;1.03;0.50;;;10.60;96.30;;;;;;4956842;28;20232;-75
2020/12/22 09:05:30;;;;;;;0.77;0.47;;;10.60;96.30;;;;;;4966465;28;20193;-74
2020/12/22 09:08:00;;;;;;;0.80;0.50;;;10.60;96.30;;;;;;4960226;28;20419;-75
2020/12/22 09:10:25;;;;;;;0.80;0.50;;;10.50;96.30;;;;;;4961958;28;20473;-74
2020/12/22 09:12:51;;;;;;;2.17;0.60;;;10.50;96.30;;;;;;4954435;29;20548;-74
2020/12/22 09:15:17;;;;;;;0.83;0.50;;;10.60;96.30;;;;;;4959713;28;20183;-75
2020/12/22 09:17:42;;;;;;;1.00;0.70;;;10.70;96.30;;;;;;4966649;28;20198;-74
2020/12/22 09:20:08;;;;;;;0.80;0.50;;;10.80;96.30;;;;;;4959796;28;20187;-74
2020/12/22 09:22:35;;;;;;;0.80;0.50;;;10.80;96.30;;;;;;4973525;28;20194;-73
2020/12/22 09:25:04;;;;;;;0.80;0.50;;;10.90;96.30;;;;;;4973877;28;20417;-74
2020/12/22 09:27:41;;;;;;;0.83;0.50;;;11.00;96.30;;;;;;4973653;28;20433;-73
2020/12/22 09:30:10;;;;;;;0.80;0.50;;;11.00;96.30;;;;;;4972568;28;20933;-74
2020/12/22 09:32:35;;;;;;;2.33;1.07;;;11.00;96.30;;;;;;4973170;28;21049;-74
2020/12/22 09:35:00;;;;;;;0.80;0.50;;;11.10;96.30;;;;;;4973523;28;20414;-73
2020/12/22 09:37:26;;;;;;;0.80;0.50;;;11.20;96.30;;;;;;4973467;28;20185;-74
2020/12/22 09:39:53;;;;;;;0.80;0.50;;;11.20;96.30;;;;;;4964212;28;20646;-73
2020/12/22 09:42:20;;;;;;;0.80;0.50;;;11.10;96.30;;;;;;4984861;28;20206;-74
2020/12/22 09:44:46;;;;;;;0.80;0.43;;;11.20;96.30;;;;;;4973518;28;20413;-73
2020/12/22 09:47:12;;;;;;;1.23;0.50;;;11.20;96.30;;;;;;4973245;28;20476;-74
2020/12/22 09:49:37;;;;;;;0.80;0.40;;;11.30;96.30;;;;;;4973472;28;20178;-73
2020/12/22 09:52:03;;;;;;;0.80;0.50;;;11.40;96.30;;;;;;4971456;28;20690;-73
2020/12/22 09:54:29;;;;;;;0.80;0.40;;;11.30;96.30;;;;;;4973310;28;20163;-73
2020/12/22 09:56:54;;;;;;;2.50;0.50;;;11.40;96.30;;;;;;4972934;28;20422;-74
2020/12/22 09:59:20;;;;;;;0.80;0.50;;;11.40;96.30;;;;;;4973355;28;20228;-73
2020/12/22 10:01:46;;;;;;;1.27;0.50;;;11.50;96.30;;;;;;4972836;28;20268;-74
2020/12/22 10:04:12;;;;;;;0.80;0.40;;;11.50;96.30;;;;;;4973080;28;20166;-73
2020/12/22 10:06:38;;;;;;;0.80;0.40;;;11.50;96.30;;;;;;4973164;28;20413;-73
2020/12/22 10:09:04;;;;;;;0.80;0.43;;;11.40;96.30;;;;;;4969387;28;20183;-73
2020/12/22 10:11:31;;;;;;;0.80;0.50;;;11.50;96.30;;;;;;4954235;28;20438;-73
2020/12/22 10:13:57;;;;;;;1.60;0.60;;;11.50;96.30;;;;;;4964647;28;20583;-73
2020/12/22 10:16:23;;;;;;;0.80;0.40;;;11.50;96.30;;;;;;4972877;28;20408;-73
2020/12/22 10:18:49;;;;;;;0.80;0.50;;;11.60;96.30;;;;;;4973192;28;20862;-73
2020/12/22 10:21:20;;;;;;;0.80;0.50;;;11.60;96.30;;;;;;4971674;28;20881;-74
2020/12/22 10:23:47;;;;;;;1.30;0.60;;;11.80;96.30;;;;;;4972948;28;20852;-74
2020/12/22 10:26:14;;;;;;;0.80;0.50;;;12.00;96.30;;;;;;4973058;28;20413;-73
2020/12/22 10:28:42;;;;;;;0.80;0.40;;;12.20;96.30;;;;;;4972882;28;20444;-73
2020/12/22 10:31:12;;;;;;;0.80;0.50;;;12.10;96.30;;;;;;4972799;28;20425;-73
2020/12/22 10:33:37;;;;;;;1.10;0.50;;;11.90;96.30;;;;;;4971461;28;20472;-73
2020/12/22 10:36:03;;;;;;;0.83;0.60;;;11.80;96.30;;;;;;4972967;28;20445;-74
2020/12/22 10:38:29;;;;;;;2.50;0.50;;;11.70;96.30;;;;;;4987895;28;20179;-73
2020/12/22 10:40:54;;;;;;;0.80;0.40;;;11.50;96.30;;;;;;4989403;28;20205;-73
2020/12/22 10:43:20;;;;;;;1.00;0.40;;;11.50;96.30;;;;;;4990596;28;20186;-73
2020/12/22 10:45:45;;;;;;;1.10;0.50;;;11.50;96.30;;;;;;4992226;28;20264;-73
2020/12/22 10:48:11;;;;;;;1.03;0.60;;;11.60;96.30;;;;;;5005244;28;20630;-73
2020/12/22 10:50:37;;;;;;;0.80;0.50;;;11.60;96.30;;;;;;4972728;28;20202;-73
2020/12/22 10:53:04;;;;;;;0.80;0.50;;;11.60;96.30;;;;;;4972295;28;20209;-74
2020/12/22 10:55:29;;;;;;;0.90;0.50;;;11.70;96.30;;;;;;4972629;28;20425;-74
2020/12/22 10:57:55;;;;;;;0.80;0.50;;;11.70;96.30;;;;;;4972345;28;20909;-74
2020/12/22 11:00:21;;;;;;;0.90;0.53;;;11.70;96.30;;;;;;4972453;28;20175;-73
2020/12/22 11:02:49;;;;;;;0.80;0.50;;;11.80;96.30;;;;;;4972269;28;20186;-74
2020/12/22 11:05:15;;;;;;;1.50;0.50;;;11.80;96.30;;;;;;4972519;28;20289;-75
2020/12/22 11:07:50;;;;;;;3.60;0.43;;;11.80;96.30;;;;;;4957604;28;20983;-74
2020/12/22 11:10:16;;;;;;;0.73;0.40;;;11.80;96.30;;;;;;4956661;28;20179;-74
2020/12/22 11:12:41;;;;;;;1.77;0.60;;;11.80;96.30;;;;;;4971437;28;20464;-75
2020/12/22 11:15:08;;;;;;;0.97;0.47;;;11.90;96.30;;;;;;4958094;28;20669;-74
2020/12/22 11:17:33;;;;;;;2.50;0.60;;;11.90;96.30;;;;;;4974674;28;20179;-74
2020/12/22 11:19:59;;;;;;;0.80;0.50;;;11.90;96.30;;;;;;4976034;28;20909;-74
2020/12/22 11:22:24;;;;;;;0.80;0.40;;;11.90;96.30;;;;;;4975810;28;20209;-74
2020/12/22 11:24:50;;;;;;;0.80;0.50;;;11.80;96.30;;;;;;4974044;28;20566;-74
2020/12/22 11:27:15;;;;;;;0.80;0.50;;;11.90;96.30;;;;;;4976005;28;20179;-74
2020/12/22 11:29:42;;;;;;;2.60;0.50;;;11.90;96.30;;;;;;4975851;28;20182;-73
2020/12/22 11:32:09;;;;;;;3.17;0.70;;;11.90;96.30;;;;;;4975093;28;20199;-74
2020/12/22 11:34:35;;;;;;;1.00;0.50;;;12.00;96.30;;;;;;4962625;28;20820;-74
2020/12/22 11:37:00;;;;;;;5.97;0.60;;;12.00;96.30;;;;;;4975839;28;20505;-74
2020/12/22 11:39:26;;;;;;;0.80;0.50;;;12.00;96.30;;;;;;4975911;28;20193;-74
2020/12/22 11:41:51;;;;;;;0.80;0.40;;;12.10;96.30;;;;;;4979697;28;20285;-74
2020/12/22 11:44:17;;;;;;;1.00;0.60;;;12.10;96.30;;;;;;4970141;28;20798;-74
2020/12/22 11:46:44;;;;;;;1.13;0.50;;;12.20;96.30;;;;;;4975470;28;20174;-76
2020/12/22 11:49:10;;;;;;;0.93;0.40;;;12.30;96.30;;;;;;4972478;28;20230;-74
2020/12/22 11:51:35;;;;;;;0.87;0.53;;;12.20;96.30;;;;;;4969602;28;20446;-75
2020/12/22 11:54:01;;;;;;;0.80;0.40;;;12.30;96.30;;;;;;4956115;29;20171;-75
2020/12/22 11:56:26;;;;;;;1.00;0.60;;;12.30;96.30;;;;;;4962643;28;20191;-75
2020/12/22 11:58:52;;;;;;;0.80;0.50;;;12.20;96.30;;;;;;4970428;28;20254;-75
2020/12/22 12:01:28;;;;;;;0.97;0.50;;;12.10;96.30;;;;;;4957706;28;20226;-74
2020/12/22 12:03:53;;;;;;;1.20;0.60;;;12.10;96.30;;;;;;4965431;28;20178;-75
2020/12/22 12:06:19;;;;;;;0.90;0.50;;;12.10;96.30;;;;;;4965087;28;20497;-74
2020/12/22 12:08:45;;;;;;;0.83;0.50;;;12.10;96.30;;;;;;4959988;28;20183;-74
2020/12/22 12:11:10;;;;;;;1.20;0.60;;;12.00;96.30;;;;;;4957116;28;20242;-74
2020/12/22 12:13:37;;;;;;;0.90;0.50;;;12.10;96.30;;;;;;4961235;28;20209;-74
2020/12/22 12:16:02;;;;;;;2.13;0.50;;;12.50;96.30;;;;;;4959595;28;20217;-74
2020/12/22 12:18:28;;;;;;;1.10;0.50;;;12.80;96.30;;;;;;4966920;28;20453;-75
2020/12/22 12:20:53;;;;;;;0.90;0.50;;;12.70;96.30;;;;;;4960437;28;20255;-75
2020/12/22 12:23:19;;;;;;;0.80;0.50;;;12.40;96.30;;;;;;4960559;28;20194;-74
2020/12/22 12:25:44;;;;;;;1.40;0.57;;;12.20;96.30;;;;;;4958527;28;20186;-75
2020/12/22 12:28:10;;;;;;;0.80;0.50;;;12.20;96.30;;;;;;4960288;28;20234;-74
2020/12/22 12:30:35;;;;;;;0.87;0.50;;;12.20;96.30;;;;;;4965610;28;20260;-74
2020/12/22 12:33:00;;;;;;;2.50;0.50;;;12.30;96.30;;;;;;4963975;28;20202;-74
2020/12/22 12:35:26;;;;;;;0.90;0.47;;;12.50;96.30;;;;;;4964190;28;20286;-75
2020/12/22 12:37:52;;;;;;;1.30;0.70;;;12.40;96.30;;;;;;4961159;28;20190;-74
2020/12/22 12:40:18;;;;;;;0.90;0.50;;;12.40;96.30;;;;;;4962779;28;20469;-74
2020/12/22 12:42:43;;;;;;;0.80;0.40;;;12.30;96.30;;;;;;4958492;28;20508;-74
2020/12/22 12:45:09;;;;;;;0.83;0.50;;;12.30;96.30;;;;;;4961468;28;20197;-74
2020/12/22 12:47:35;;;;;;;0.80;0.40;;;12.30;96.30;;;;;;4964315;28;20186;-74
2020/12/22 12:50:00;;;;;;;0.80;0.40;;;12.30;96.30;;;;;;4958201;28;20421;-74
2020/12/22 12:52:26;;;;;;;0.80;0.50;;;12.30;96.30;;;;;;4958595;28;20217;-73
2020/12/22 12:54:51;;;;;;;1.40;0.60;;;12.20;96.30;;;;;;4961273;28;20258;-74
2020/12/22 12:57:17;;;;;;;1.03;0.50;;;12.20;96.30;;;;;;4957372;28;20627;-74
2020/12/22 12:59:42;;;;;;;1.63;0.70;;;12.20;96.30;;;;;;4959448;28;20174;-73
2020/12/22 13:02:08;;;;;;;1.17;0.60;;;12.10;96.30;;;;;;4960738;28;20701;-74
2020/12/22 13:04:34;;;;;;;0.90;0.50;;;12.00;96.30;;;;;;4978976;28;20556;-74
2020/12/22 13:07:00;;;;;;;2.03;0.50;;;12.00;96.30;;;;;;4960084;28;20179;-73
2020/12/22 13:09:26;;;;;;;0.90;0.57;;;12.00;96.30;;;;;;4960523;28;20537;-74
2020/12/22 13:11:51;;;;;;;1.57;0.70;;;12.00;96.30;;;;;;4960476;28;20580;-74
2020/12/22 13:14:17;;;;;;;0.90;0.53;;;12.00;96.30;;;;;;4960757;28;20179;-74
2020/12/22 13:16:42;;;;;;;0.90;0.60;;;12.00;96.30;;;;;;4958937;28;20179;-74
2020/12/22 13:19:08;;;;;;;3.30;0.53;;;12.00;96.30;;;;;;4959077;28;20187;-73
2020/12/22 13:21:40;;;;;;;2.60;0.60;;;12.00;96.30;;;;;;4961041;28;20297;-75
2020/12/22 13:24:05;;;;;;;1.43;0.50;;;12.00;96.30;;;;;;4963477;28;20187;-74
2020/12/22 13:26:38;;;;;;;1.13;0.50;;;11.80;96.30;;;;;;4958585;28;20472;-73
2020/12/22 13:29:04;;;;;;;0.80;0.50;;;11.90;96.30;;;;;;4957243;28;20187;-73
2020/12/22 13:31:29;;;;;;;0.90;0.50;;;12.00;96.30;;;;;;4958264;28;21130;-74
2020/12/22 13:33:55;;;;;;;1.00;0.57;;;11.90;96.30;;;;;;4961651;28;20217;-74
2020/12/22 13:36:20;;;;;;;5.57;0.50;;;11.90;96.30;;;;;;4959367;28;20215;-73
2020/12/22 13:38:46;;;;;;;1.00;0.57;;;11.80;96.30;;;;;;4956038;28;20175;-73
2020/12/22 13:41:11;;;;;;;0.77;0.40;;;11.70;96.30;;;;;;4962281;28;20202;-73
2020/12/22 13:43:36;;;;;;;0.80;0.50;;;11.70;96.30;;;;;;4959306;28;20187;-73
2020/12/22 13:46:02;;;;;;;0.80;0.50;;;11.80;96.30;;;;;;4968371;28;20298;-73
2020/12/22 13:48:27;;;;;;;0.90;0.50;;;11.80;96.30;;;;;;4957529;28;20222;-72
2020/12/22 13:50:53;;;;;;;0.80;0.50;;;11.60;96.30;;;;;;4959235;28;20215;-73
2020/12/22 13:53:18;;;;;;;0.90;0.70;;;11.60;96.30;;;;;;4956416;28;20221;-72
2020/12/22 13:55:44;;;;;;;1.67;0.80;;;11.70;96.30;;;;;;4959676;28;20206;-73
2020/12/22 13:58:09;;;;;;;1.10;0.70;;;11.60;96.30;;;;;;4960901;28;20318;-74
2020/12/22 14:00:35;;;;;;;0.90;0.60;;;11.60;96.30;;;;;;4962945;28;20303;-74
2020/12/22 14:03:00;;;;;;;0.80;0.50;;;11.60;96.30;;;;;;4959806;28;20205;-74
2020/12/22 14:05:26;;;;;;;1.83;0.60;;;11.50;96.30;;;;;;4966154;28;20198;-75
2020/12/22 14:07:51;;;;;;;0.80;0.50;;;11.50;96.30;;;;;;4956326;28;20190;-75
2020/12/22 14:10:17;;;;;;;2.43;0.70;;;11.40;96.30;;;;;;4960718;28;20182;-75
2020/12/22 14:12:42;;;;;;;1.00;0.60;;;11.30;96.30;;;;;;4961419;28;20368;-75
2020/12/22 14:15:08;;;;;;;1.00;0.50;;;11.20;96.30;;;;;;4960627;28;20193;-75
2020/12/22 14:17:33;;;;;;;1.00;0.70;;;11.10;96.30;;;;;;4963187;28;20183;-75
2020/12/22 14:19:59;;;;;;;1.87;0.53;;;11.00;96.30;;;;;;4953959;28;20163;-75
2020/12/22 14:22:24;;;;;;;0.80;0.50;;;11.10;96.30;;;;;;5004061;23;20299;-75
2020/12/22 14:24:50;;;;;;;0.97;0.60;;;11.10;96.30;;;;;;4992646;28;20181;-76
2020/12/22 14:27:15;;;;;;;0.80;0.50;;;11.20;96.30;;;;;;4992245;28;20177;-75
2020/12/22 14:29:41;;;;;;;1.00;0.60;;;11.20;96.30;;;;;;4978971;28;20668;-75
2020/12/22 14:32:10;;;;;;;0.80;0.60;;;11.20;96.30;;;;;;4972397;28;20242;-75
2020/12/22 14:34:35;;;;;;;1.10;0.50;;;11.20;96.30;;;;;;4972978;28;20673;-75
2020/12/22 14:37:01;;;;;;;1.20;0.90;;;11.20;96.30;;;;;;4973002;28;20438;-75
2020/12/22 14:39:27;;;;;;;0.90;0.50;;;11.10;96.30;;;;;;4973163;28;20627;-75
2020/12/22 14:41:52;;;;;;;4.40;0.60;;;11.10;96.30;;;;;;4984789;28;20213;-76
2020/12/22 14:44:17;;;;;;;1.17;0.60;;;10.90;96.30;;;;;;4996689;28;20273;-75
2020/12/22 14:46:43;;;;;;;1.87;0.67;;;10.90;96.30;;;;;;4995921;28;20173;-75
2020/12/22 14:49:09;;;;;;;1.00;0.60;;;10.80;96.30;;;;;;4996080;28;20609;-75
2020/12/22 14:51:34;;;;;;;1.23;0.60;;;10.70;96.30;;;;;;4994706;28;20700;-74
2020/12/22 14:54:00;;;;;;;0.90;0.70;;;10.70;96.30;;;;;;4995213;28;20185;-74
2020/12/22 14:56:25;;;;;;;0.80;0.50;;;10.60;96.30;;;;;;4995441;28;20178;-74
2020/12/22 14:58:51;;;;;;;1.13;0.60;;;10.60;96.30;;;;;;4994853;28;20633;-75
2020/12/22 15:01:21;;;;;;;1.00;0.50;;;10.60;96.30;;;;;;4995620;28;20201;-74
2020/12/22 15:03:46;;;;;;;0.80;0.50;;;10.70;96.30;;;;;;4995817;28;20174;-74
2020/12/22 15:06:17;;;;;;;0.80;0.50;;;10.80;96.30;;;;;;4995422;28;20417;-74
2020/12/22 15:08:42;;;;;;;1.03;0.60;;;10.80;96.30;;;;;;4995453;28;20174;-74
2020/12/22 15:11:11;;;;;;;0.80;0.60;;;10.80;96.30;;;;;;4995441;28;20435;-75
2020/12/22 15:13:37;;;;;;;1.50;0.80;;;10.70;96.30;;;;;;4995330;28;20201;-75
2020/12/22 15:16:02;;;;;;;1.20;0.67;;;10.60;96.30;;;;;;4995847;28;20436;-74
2020/12/22 15:18:28;;;;;;;1.87;0.80;;;10.70;96.30;;;;;;4980585;28;20298;-74
2020/12/22 15:20:53;;;;;;;2.03;0.63;;;10.60;96.30;;;;;;4975856;28;20206;-74
2020/12/22 15:23:21;;;;;;;1.03;0.80;;;10.50;96.30;;;;;;4975748;28;20182;-75
2020/12/22 15:25:47;;;;;;;1.20;0.80;;;10.40;96.30;;;;;;4987602;28;20657;-75
2020/12/22 15:28:14;;;;;;;1.00;0.70;;;10.40;96.30;;;;;;4992669;28;20447;-74
2020/12/22 15:30:39;;;;;;;1.60;0.70;;;10.50;96.30;;;;;;4995511;28;20177;-74
2020/12/22 15:33:04;;;;;;;1.67;0.70;;;10.40;96.30;;;;;;4995254;28;20453;-74
2020/12/22 15:35:30;;;;;;;2.60;0.80;;;10.30;96.30;;;;;;4995413;28;20205;-75
2020/12/22 15:37:56;;;;;;;0.90;0.60;;;10.20;96.30;;;;;;4995499;28;20520;-74
2020/12/22 15:40:21;;;;;;;1.87;0.80;;;10.10;96.30;;;;;;4995409;28;20668;-74
2020/12/22 15:42:47;;;;;;;0.90;0.60;;;10.20;96.30;;;;;;4994715;28;20199;-75
2020/12/22 15:45:12;;;;;;;1.50;1.03;;;10.20;96.30;;;;;;4995308;28;20634;-76
2020/12/22 15:47:38;;;;;;;9.03;0.80;;;10.20;96.30;;;;;;4993930;28;20730;-74
2020/12/22 15:50:04;;;;;;;1.53;0.80;;;10.20;96.30;;;;;;4994677;28;20177;-74
2020/12/22 15:52:29;;;;;;;3.00;0.80;;;10.20;96.30;;;;;;4994168;28;20227;-74
2020/12/22 15:54:55;;;;;;;1.20;0.80;;;10.20;96.30;;;;;;4988474;28;20512;-75
2020/12/22 15:57:20;;;;;;;2.80;0.90;;;10.10;96.30;;;;;;4986609;28;20603;-74
2020/12/22 15:59:46;;;;;;;0.90;0.63;;;10.10;96.30;;;;;;4989459;28;20548;-74
2020/12/22 16:02:11;;;;;;;2.13;0.97;;;10.10;96.30;;;;;;4990620;28;20209;-74
2020/12/22 16:04:37;;;;;;;1.67;0.80;;;10.10;96.30;;;;;;4994995;28;20173;-74
2020/12/22 16:07:02;;;;;;;1.20;0.70;;;10.10;96.30;;;;;;4994947;28;20833;-74
2020/12/22 16:09:28;;;;;;;1.20;0.87;;;10.00;96.30;;;;;;4993676;28;20181;-74
2020/12/22 16:11:58;;;;;;;0.90;0.63;;;10.10;96.30;;;;;;4979226;28;20228;-76
2020/12/22 16:14:24;;;;;;;1.40;0.67;;;10.10;96.30;;;;;;4976607;28;20217;-75
2020/12/22 16:16:53;;;;;;;1.20;0.90;;;10.00;96.30;;;;;;4991657;28;20408;-76
2020/12/22 16:19:19;;;;;;;1.73;0.80;;;9.90;96.30;;;;;;4994078;28;20280;-74
2020/12/22 16:21:44;;;;;;;1.17;0.83;;;10.00;96.30;;;;;;4993955;28;20951;-75
2020/12/22 16:24:10;;;;;;;1.50;0.80;;;10.00;96.30;;;;;;4994923;28;20188;-74
2020/12/22 16:26:35;;;;;;;3.23;1.03;;;9.90;96.30;;;;;;4994435;28;20264;-74
2020/12/22 16:29:01;;;;;;;1.20;0.80;;;9.80;96.30;;;;;;4993341;28;20178;-74
2020/12/22 16:31:31;;;;;;;1.40;0.80;;;9.90;96.30;;;;;;4994056;28;20235;-76
2020/12/22 16:33:56;;;;;;;3.77;1.30;;;9.90;96.30;;;;;;4993070;28;20572;-75
2020/12/22 16:36:26;;;;;;;1.10;0.80;;;9.90;96.30;;;;;;4994589;28;20401;-74
2020/12/22 16:38:51;;;;;;;2.80;0.90;;;9.70;96.30;;;;;;4993372;28;20597;-74
2020/12/22 16:41:17;;;;;;;1.43;0.90;;;9.80;96.30;;;;;;4991169;28;20531;-75
2020/12/22 16:43:42;;;;;;;2.07;0.90;;;9.70;96.30;;;;;;4989021;28;20186;-75
2020/12/22 16:46:08;;;;;;;2.77;1.20;;;9.60;96.30;;;;;;4993431;28;20181;-75
2020/12/22 16:48:34;;;;;;;1.40;0.90;;;9.70;96.30;;;;;;4993568;28;20598;-75
2020/12/22 16:50:59;;;;;;;1.43;1.00;;;9.70;96.30;;;;;;4992933;28;20208;-75